BKL weather

Burke Lakefront Airport
Cleveland, Ohio, United States

Public forecast

Using degrees Fahrenheit for public forecast. Weather courtesy of forecast.io.

METAR (pilot weather report)

Retrieved 2019/04/21 20:53 UTC (49 minutes ago):

KBKL 212053Z 36004KT 10SM FEW020 BKN120 10/06 A3012 RMK AO2 SLP201 T01000061 51007

TAF (pilot weather forecast)

Forecast is more than 12 hours old.

Closest forecast is Cuyahoga County Airport, 9.3 nm (17.2 km) ENE. Retrieved 2016/07/24 12:26 UTC (3 years ago):

TAF KCGF 241126Z 2412/2512 18008KT P6SM BKN060 OVC200 FM241500 25010KT P6SM SCT035 BKN200 FM242000 27008KT P6SM VCTS BKN040CB OVC060 FM242300 21005KT P6SM SCT120 BKN200